Time;durP1;ratioP1;P1;durP2;ratioP2;P2;SDS_P1;SDS_P2;PMS_P1;PMS_P2;Temp;Humidity;BMP_temperature;BMP_pressure;BME280_temperature;BME280_humidity;BME280_pressure;Samples;Min_cycle;Max_cycle;Signal;HPM_P1;HPM_P2
2021/11/05 00:01:47;;;;;;;193.15;27.52;;;7.70;96.50;;;;;;5036526;28;20037;-82
2021/11/05 00:04:13;;;;;;;88.57;21.58;;;7.70;96.50;;;;;;5054240;28;20036;-81
2021/11/05 00:06:39;;;;;;;65.75;22.20;;;7.60;96.50;;;;;;5053488;28;20040;-81
2021/11/05 00:09:05;;;;;;;58.90;23.58;;;7.60;96.50;;;;;;5054588;28;20037;-81
2021/11/05 00:11:31;;;;;;;75.15;22.80;;;7.70;96.50;;;;;;5053621;28;20029;-81
2021/11/05 00:13:56;;;;;;;117.57;27.00;;;7.70;96.50;;;;;;5054144;28;20040;-81
2021/11/05 00:16:22;;;;;;;154.52;29.17;;;7.70;96.50;;;;;;5053150;28;20533;-81
2021/11/05 00:18:47;;;;;;;108.47;21.05;;;7.70;96.50;;;;;;5053297;28;20028;-81
2021/11/05 00:21:13;;;;;;;82.55;22.45;;;7.70;96.50;;;;;;5053501;28;20029;-81
2021/11/05 00:23:39;;;;;;;107.63;23.50;;;7.70;96.50;;;;;;5050420;28;20565;-82
2021/11/05 00:26:04;;;;;;;163.05;24.08;;;7.60;96.40;;;;;;5051431;28;20409;-82
2021/11/05 00:28:30;;;;;;;228.43;29.90;;;7.60;96.50;;;;;;5051491;28;20053;-81
2021/11/05 00:30:56;;;;;;;98.20;20.55;;;7.60;96.50;;;;;;5016235;28;20033;-82
2021/11/05 00:33:22;;;;;;;95.75;22.15;;;7.70;96.50;;;;;;5052935;28;20021;-82
2021/11/05 00:35:48;;;;;;;127.10;25.80;;;7.60;96.50;;;;;;5052753;28;20044;-81
2021/11/05 00:38:14;;;;;;;215.60;29.10;;;7.60;96.50;;;;;;5052891;28;20025;-82
2021/11/05 00:40:40;;;;;;;55.40;22.08;;;7.60;96.50;;;;;;5052595;28;20060;-82
2021/11/05 00:43:06;;;;;;;73.85;24.30;;;7.60;96.50;;;;;;5052687;28;20440;-82
2021/11/05 00:45:31;;;;;;;98.07;22.38;;;7.60;96.50;;;;;;5054279;28;20025;-82
2021/11/05 00:47:57;;;;;;;56.70;19.23;;;7.60;96.50;;;;;;5054174;28;20485;-82
2021/11/05 00:50:23;;;;;;;49.03;21.10;;;7.60;96.60;;;;;;5053702;28;20037;-82
2021/11/05 00:52:49;;;;;;;54.53;18.65;;;7.60;96.50;;;;;;5053961;28;20032;-81
2021/11/05 00:55:15;;;;;;;76.00;20.65;;;7.60;96.50;;;;;;5053615;28;20033;-82
2021/11/05 00:57:40;;;;;;;79.80;22.30;;;7.60;96.50;;;;;;5053671;28;20033;-82
2021/11/05 01:00:11;;;;;;;55.38;20.75;;;7.60;96.50;;;;;;5053064;28;20078;-82
2021/11/05 01:02:37;;;;;;;54.78;22.75;;;7.60;96.50;;;;;;5053960;28;20112;-82
2021/11/05 01:05:03;;;;;;;46.08;19.20;;;7.60;96.80;;;;;;5052440;28;20040;-82
2021/11/05 01:07:29;;;;;;;75.97;25.08;;;7.60;96.40;;;;;;5053582;28;20025;-82
2021/11/05 01:09:55;;;;;;;181.88;31.10;;;7.50;96.40;;;;;;5052189;28;20397;-82
2021/11/05 01:12:21;;;;;;;44.25;23.60;;;7.50;96.40;;;;;;5053687;28;20133;-81
2021/11/05 01:14:47;;;;;;;32.35;21.27;;;7.50;96.40;;;;;;5051881;28;20032;-81
2021/11/05 01:17:13;;;;;;;36.33;22.67;;;7.50;96.40;;;;;;5052241;28;20029;-81
2021/11/05 01:19:39;;;;;;;34.25;24.02;;;7.50;96.40;;;;;;5053495;28;20473;-82
2021/11/05 01:22:05;;;;;;;37.03;23.73;;;7.40;96.30;;;;;;5051959;28;20091;-82
2021/11/05 01:24:31;;;;;;;36.13;22.08;;;7.40;96.40;;;;;;5053172;28;20025;-82
2021/11/05 01:26:57;;;;;;;46.17;25.15;;;7.40;96.40;;;;;;5053287;28;20033;-81
2021/11/05 01:29:23;;;;;;;37.83;23.92;;;7.40;96.40;;;;;;5051349;28;21791;-81
2021/11/05 01:31:49;;;;;;;76.70;24.40;;;7.40;96.40;;;;;;5053242;28;20671;-82
2021/11/05 01:34:15;;;;;;;94.05;23.20;;;7.40;96.40;;;;;;5052251;28;20389;-82
2021/11/05 01:36:41;;;;;;;60.35;25.25;;;7.40;96.40;;;;;;5053171;28;20026;-82
2021/11/05 01:39:07;;;;;;;53.17;23.65;;;7.30;96.30;;;;;;5051366;28;20028;-82
2021/11/05 01:41:37;;;;;;;73.90;25.00;;;7.30;96.30;;;;;;5053204;28;20120;-82
2021/11/05 01:44:03;;;;;;;177.18;24.15;;;7.30;96.40;;;;;;5051808;28;20103;-82
2021/11/05 01:46:29;;;;;;;180.10;24.38;;;7.30;96.40;;;;;;5035325;28;20459;-82
2021/11/05 01:48:54;;;;;;;74.25;20.67;;;7.30;96.30;;;;;;5045891;28;20098;-82
2021/11/05 01:51:21;;;;;;;37.20;21.65;;;7.20;96.30;;;;;;5033125;28;20021;-82
2021/11/05 01:53:47;;;;;;;47.50;20.08;;;7.20;96.30;;;;;;5040873;28;20021;-82
2021/11/05 01:56:13;;;;;;;91.07;24.35;;;7.20;96.40;;;;;;5035310;28;20032;-82
2021/11/05 01:58:38;;;;;;;50.08;22.40;;;7.20;96.30;;;;;;5051559;28;20052;-82
2021/11/05 02:01:05;;;;;;;57.58;21.23;;;7.20;96.30;;;;;;5052702;28;20032;-82
2021/11/05 02:03:31;;;;;;;47.58;19.98;;;7.20;96.30;;;;;;5051929;28;20040;-82
2021/11/05 02:05:58;;;;;;;38.90;20.98;;;7.10;96.20;;;;;;5052877;28;20148;-81
2021/11/05 02:08:26;;;;;;;36.47;17.83;;;7.10;96.20;;;;;;5053309;28;20474;-82
2021/11/05 02:10:53;;;;;;;39.08;17.95;;;7.10;96.20;;;;;;5056586;28;20025;-81
2021/11/05 02:13:21;;;;;;;47.83;17.92;;;7.10;96.20;;;;;;5055408;28;20037;-82
2021/11/05 02:15:48;;;;;;;35.55;16.65;;;7.00;96.10;;;;;;5056792;28;20039;-82
2021/11/05 02:18:15;;;;;;;50.45;17.42;;;6.90;96.10;;;;;;5055785;28;20039;-81
2021/11/05 02:20:43;;;;;;;54.63;16.65;;;6.90;96.10;;;;;;5056674;28;20029;-82
2021/11/05 02:23:08;;;;;;;54.08;20.30;;;6.90;96.10;;;;;;5056672;28;20028;-82
2021/11/05 02:25:34;;;;;;;34.70;16.23;;;6.80;96.00;;;;;;5054369;28;20041;-82
2021/11/05 02:28:00;;;;;;;46.70;16.50;;;6.80;96.00;;;;;;5041315;28;20037;-81
2021/11/05 02:30:26;;;;;;;45.47;17.23;;;6.80;96.00;;;;;;5049358;28;20041;-81
2021/11/05 02:32:52;;;;;;;31.05;17.20;;;6.70;95.90;;;;;;5051831;28;20527;-81
2021/11/05 02:35:18;;;;;;;39.75;16.38;;;6.70;95.90;;;;;;5054003;28;20060;-81
2021/11/05 02:37:45;;;;;;;53.95;17.15;;;6.60;95.80;;;;;;5055020;28;20434;-81
2021/11/05 02:40:12;;;;;;;55.58;17.10;;;6.60;95.80;;;;;;5055759;28;20037;-81
2021/11/05 02:42:38;;;;;;;34.42;16.88;;;6.50;95.70;;;;;;5055386;28;20394;-81
2021/11/05 02:45:06;;;;;;;52.80;16.50;;;6.50;95.70;;;;;;5038684;28;20448;-81
2021/11/05 02:47:32;;;;;;;55.83;16.63;;;6.40;95.60;;;;;;5054977;28;20087;-81
2021/11/05 02:50:08;;;;;;;55.92;16.48;;;6.40;95.60;;;;;;5056303;28;20062;-81
2021/11/05 02:52:34;;;;;;;33.38;14.77;;;6.40;95.70;;;;;;5055010;28;20025;-81
2021/11/05 02:55:00;;;;;;;50.30;15.15;;;6.40;95.70;;;;;;5056245;28;20551;-81
2021/11/05 02:57:25;;;;;;;33.20;15.40;;;6.40;95.70;;;;;;5055988;28;20036;-81
2021/11/05 02:59:51;;;;;;;20.85;14.88;;;6.30;95.60;;;;;;5054314;28;20040;-81
2021/11/05 03:02:22;;;;;;;43.45;16.02;;;6.30;95.60;;;;;;5036072;28;20033;-81
2021/11/05 03:04:48;;;;;;;23.17;15.60;;;6.20;95.50;;;;;;5034389;28;20799;-81
2021/11/05 03:07:13;;;;;;;24.00;17.42;;;6.20;95.50;;;;;;5049088;28;20041;-82
2021/11/05 03:09:40;;;;;;;22.02;16.58;;;6.20;95.60;;;;;;5034063;28;20053;-81
2021/11/05 03:12:08;;;;;;;20.80;15.63;;;6.10;95.60;;;;;;5047420;28;20025;-81
2021/11/05 03:14:35;;;;;;;21.90;15.25;;;6.10;95.70;;;;;;5037662;28;20018;-81
2021/11/05 03:17:01;;;;;;;19.05;14.88;;;6.10;95.60;;;;;;5043308;28;20107;-81
2021/11/05 03:19:27;;;;;;;22.88;16.95;;;6.10;95.60;;;;;;5055850;28;20492;-82
2021/11/05 03:21:53;;;;;;;22.83;16.25;;;6.00;95.80;;;;;;5038676;28;20034;-81
2021/11/05 03:24:19;;;;;;;31.25;18.10;;;6.00;95.50;;;;;;5041445;28;20028;-81
2021/11/05 03:26:45;;;;;;;25.05;17.27;;;6.00;95.40;;;;;;5055558;28;20040;-82
2021/11/05 03:29:12;;;;;;;27.90;17.17;;;5.90;95.40;;;;;;5054962;28;20049;-81
2021/11/05 03:31:37;;;;;;;26.17;16.33;;;5.90;95.40;;;;;;5053968;28;20033;-81
2021/11/05 03:34:03;;;;;;;86.47;16.75;;;5.90;95.50;;;;;;5037532;28;20083;-81
2021/11/05 03:36:29;;;;;;;33.50;15.07;;;5.90;95.50;;;;;;5053992;28;20755;-82
2021/11/05 03:38:55;;;;;;;52.35;14.85;;;5.80;95.50;;;;;;5054704;28;20021;-82
2021/11/05 03:41:21;;;;;;;44.13;16.25;;;5.80;95.50;;;;;;5054715;28;20039;-81
2021/11/05 03:43:49;;;;;;;62.63;17.15;;;5.80;95.40;;;;;;5055030;28;20032;-81
2021/11/05 03:46:15;;;;;;;26.13;14.70;;;5.80;95.40;;;;;;5054795;28;20021;-82
2021/11/05 03:48:40;;;;;;;70.28;14.40;;;5.90;95.40;;;;;;5054705;28;20523;-81
2021/11/05 03:51:07;;;;;;;48.95;15.98;;;5.80;95.40;;;;;;5055014;28;20033;-82
2021/11/05 03:53:34;;;;;;;37.85;13.90;;;5.80;95.40;;;;;;5034962;28;20490;-81
2021/11/05 03:56:00;;;;;;;62.22;13.45;;;5.80;95.30;;;;;;5034561;28;20163;-81
2021/11/05 03:58:25;;;;;;;29.08;13.95;;;5.70;95.20;;;;;;5034933;28;20112;-81
2021/11/05 04:00:52;;;;;;;33.80;14.15;;;5.70;95.20;;;;;;5035092;28;20135;-81
2021/11/05 04:03:18;;;;;;;44.13;13.60;;;5.70;95.20;;;;;;5033294;28;20048;-81
2021/11/05 04:05:44;;;;;;;25.63;12.65;;;5.70;95.10;;;;;;5051214;28;20029;-81
2021/11/05 04:08:10;;;;;;;22.80;14.10;;;5.60;95.00;;;;;;5051137;28;20039;-82
2021/11/05 04:10:35;;;;;;;33.22;13.48;;;5.60;95.10;;;;;;5052992;28;20073;-82
2021/11/05 04:13:01;;;;;;;30.63;12.27;;;5.50;95.10;;;;;;5054039;28;20033;-81
2021/11/05 04:15:28;;;;;;;17.10;12.18;;;5.50;95.00;;;;;;5053370;28;20543;-81
2021/11/05 04:17:53;;;;;;;21.70;13.07;;;5.40;95.20;;;;;;5054569;28;20111;-81
2021/11/05 04:20:19;;;;;;;19.33;13.75;;;5.40;95.00;;;;;;5069998;28;20147;-82
2021/11/05 04:22:45;;;;;;;19.63;12.55;;;5.40;95.00;;;;;;5053434;28;20037;-82
2021/11/05 04:25:11;;;;;;;14.93;12.05;;;5.40;95.00;;;;;;5053433;28;20112;-81
2021/11/05 04:27:36;;;;;;;18.10;13.18;;;5.30;95.00;;;;;;5054534;28;20039;-81
2021/11/05 04:30:07;;;;;;;17.05;13.90;;;5.40;95.00;;;;;;5052836;28;20099;-81
2021/11/05 04:32:33;;;;;;;15.95;12.38;;;5.30;95.00;;;;;;5050956;28;20032;-81
2021/11/05 04:34:58;;;;;;;17.15;12.60;;;5.40;94.90;;;;;;5049837;28;20040;-82
2021/11/05 04:37:24;;;;;;;17.48;12.70;;;5.30;94.90;;;;;;5049946;28;20037;-82
2021/11/05 04:39:50;;;;;;;18.33;12.77;;;5.30;94.80;;;;;;5050052;28;20025;-82
2021/11/05 04:42:16;;;;;;;14.40;12.18;;;5.30;94.80;;;;;;5050044;28;20040;-81
2021/11/05 04:44:41;;;;;;;16.60;12.48;;;5.30;94.80;;;;;;5053206;28;20029;-82
2021/11/05 04:47:07;;;;;;;17.52;11.48;;;5.20;94.80;;;;;;5052473;28;20490;-81
2021/11/05 04:49:33;;;;;;;16.90;12.45;;;5.20;94.80;;;;;;5053220;28;20115;-81
2021/11/05 04:51:59;;;;;;;14.63;11.68;;;5.20;94.80;;;;;;5051718;28;20090;-81
2021/11/05 04:54:24;;;;;;;17.80;12.57;;;5.20;94.80;;;;;;5033762;28;20056;-82
2021/11/05 04:56:50;;;;;;;14.77;12.05;;;5.10;95.10;;;;;;5051918;28;20037;-81
2021/11/05 04:59:18;;;;;;;18.58;12.80;;;5.10;94.80;;;;;;5034697;28;20390;-81
2021/11/05 05:01:44;;;;;;;18.13;13.20;;;5.10;94.80;;;;;;5033225;28;20034;-81
2021/11/05 05:04:10;;;;;;;21.13;13.10;;;5.10;94.70;;;;;;5048787;28;20033;-81
2021/11/05 05:06:36;;;;;;;18.58;13.45;;;5.10;94.80;;;;;;5053489;28;20035;-81
2021/11/05 05:09:02;;;;;;;15.82;11.80;;;5.00;94.80;;;;;;5052648;28;20037;-81
2021/11/05 05:11:28;;;;;;;22.52;13.35;;;5.00;94.80;;;;;;5051831;28;20115;-81
2021/11/05 05:13:54;;;;;;;17.30;12.90;;;5.00;94.80;;;;;;5051837;28;20459;-81
2021/11/05 05:16:19;;;;;;;20.80;13.38;;;5.00;95.00;;;;;;5052447;28;20017;-81
2021/11/05 05:18:46;;;;;;;17.42;12.60;;;5.00;94.80;;;;;;5053319;28;20052;-81
2021/11/05 05:21:13;;;;;;;18.50;13.68;;;5.00;94.80;;;;;;5052156;28;20036;-81
2021/11/05 05:23:39;;;;;;;19.00;13.25;;;5.00;94.90;;;;;;5051858;28;20482;-81
2021/11/05 05:26:05;;;;;;;19.38;13.18;;;5.00;95.20;;;;;;5051833;28;20029;-81
2021/11/05 05:28:31;;;;;;;18.25;14.75;;;5.10;94.90;;;;;;5050641;28;20111;-81
2021/11/05 05:30:59;;;;;;;15.68;11.88;;;5.10;94.90;;;;;;5030902;28;20040;-81
2021/11/05 05:33:25;;;;;;;25.10;14.93;;;5.20;94.90;;;;;;5053730;28;20033;-81
2021/11/05 05:35:50;;;;;;;20.67;14.43;;;5.20;94.90;;;;;;5050170;28;20037;-81
2021/11/05 05:38:16;;;;;;;25.42;13.52;;;5.30;95.00;;;;;;5049800;28;20029;-81
2021/11/05 05:40:42;;;;;;;20.17;13.55;;;5.30;95.20;;;;;;5050848;28;20035;-81
2021/11/05 05:43:07;;;;;;;17.35;11.85;;;5.30;95.00;;;;;;5051765;28;20105;-81
2021/11/05 05:45:33;;;;;;;16.67;12.50;;;5.40;95.00;;;;;;5051642;28;20079;-81
2021/11/05 05:47:59;;;;;;;18.77;12.05;;;5.30;95.00;;;;;;5052713;28;20036;-81
2021/11/05 05:50:24;;;;;;;21.88;12.38;;;5.30;95.00;;;;;;5051398;28;20123;-81
2021/11/05 05:52:50;;;;;;;19.75;12.40;;;5.40;95.00;;;;;;5051753;28;20037;-81
2021/11/05 05:55:16;;;;;;;19.83;12.82;;;5.30;94.90;;;;;;5051055;28;20032;-81
2021/11/05 05:57:42;;;;;;;24.10;15.05;;;5.30;95.00;;;;;;5051392;28;20025;-81
2021/11/05 06:00:12;;;;;;;26.33;16.40;;;5.20;95.00;;;;;;5052173;28;20037;-81
2021/11/05 06:02:37;;;;;;;23.45;14.32;;;5.20;95.00;;;;;;5051321;28;20366;-81
2021/11/05 06:05:04;;;;;;;23.95;14.52;;;5.20;95.00;;;;;;5051313;28;20036;-81
2021/11/05 06:07:30;;;;;;;25.75;16.38;;;5.20;95.00;;;;;;5052643;28;20036;-81
2021/11/05 06:09:55;;;;;;;29.08;14.18;;;5.20;95.10;;;;;;5051297;28;20524;-81
2021/11/05 06:12:21;;;;;;;25.48;15.93;;;5.20;95.10;;;;;;5051454;28;20021;-81
2021/11/05 06:14:47;;;;;;;21.65;13.00;;;5.20;95.00;;;;;;5051582;28;20037;-81
2021/11/05 06:17:15;;;;;;;21.83;14.52;;;5.30;95.10;;;;;;5054169;28;20037;-81
2021/11/05 06:19:40;;;;;;;21.67;14.70;;;5.30;95.20;;;;;;5051752;28;20051;-81
2021/11/05 06:22:06;;;;;;;20.75;13.60;;;5.30;95.30;;;;;;5051140;28;20683;-81
2021/11/05 06:24:32;;;;;;;30.75;16.08;;;5.30;95.30;;;;;;5052151;28;20033;-81
2021/11/05 06:26:57;;;;;;;29.40;15.85;;;5.40;95.30;;;;;;5052268;28;20116;-82
2021/11/05 06:29:23;;;;;;;21.48;12.70;;;5.40;95.30;;;;;;5050978;28;20056;-81
2021/11/05 06:31:48;;;;;;;18.48;14.23;;;5.50;95.40;;;;;;5034284;28;20477;-81
2021/11/05 06:34:14;;;;;;;23.15;13.70;;;5.50;95.40;;;;;;5051702;28;20113;-81
2021/11/05 06:36:40;;;;;;;22.40;14.43;;;5.50;95.40;;;;;;5034037;28;20362;-81
2021/11/05 06:39:06;;;;;;;18.33;13.55;;;5.60;95.50;;;;;;5034211;28;20116;-81
2021/11/05 06:41:31;;;;;;;22.42;14.68;;;5.60;95.50;;;;;;5052081;28;20044;-81
2021/11/05 06:43:57;;;;;;;22.48;14.80;;;5.60;95.50;;;;;;5052220;28;20706;-82
2021/11/05 06:46:23;;;;;;;18.15;12.85;;;5.70;95.50;;;;;;5051093;28;20568;-81
2021/11/05 06:48:49;;;;;;;21.48;13.50;;;5.70;95.50;;;;;;5052153;28;20086;-81
2021/11/05 06:51:15;;;;;;;17.63;12.43;;;5.70;95.50;;;;;;5052315;28;20013;-82
2021/11/05 06:53:41;;;;;;;24.27;15.55;;;5.70;95.50;;;;;;5051401;28;20025;-82
2021/11/05 06:56:07;;;;;;;19.67;13.95;;;5.80;95.60;;;;;;5054363;28;20053;-82
2021/11/05 06:58:35;;;;;;;22.67;13.65;;;5.80;95.60;;;;;;5056216;28;20749;-82
2021/11/05 07:01:05;;;;;;;20.88;14.30;;;5.80;95.60;;;;;;5055116;28;20028;-81
2021/11/05 07:03:32;;;;;;;18.90;13.82;;;5.80;95.60;;;;;;5055727;28;20044;-82
2021/11/05 07:05:58;;;;;;;19.15;14.10;;;5.80;95.60;;;;;;5055732;28;20051;-82
2021/11/05 07:08:25;;;;;;;15.73;12.77;;;5.70;95.60;;;;;;5054173;28;20033;-82
2021/11/05 07:10:52;;;;;;;14.55;11.35;;;5.70;95.60;;;;;;5055705;28;20029;-82
2021/11/05 07:13:18;;;;;;;18.67;12.95;;;5.70;95.90;;;;;;5054038;28;20498;-82
2021/11/05 07:15:44;;;;;;;19.90;14.10;;;5.70;95.60;;;;;;5054098;28;20032;-82
2021/11/05 07:18:10;;;;;;;20.80;13.07;;;5.70;95.70;;;;;;5054979;28;20032;-82
2021/11/05 07:20:36;;;;;;;18.75;13.10;;;5.70;95.70;;;;;;5055472;28;20025;-82
2021/11/05 07:23:03;;;;;;;19.10;12.85;;;5.70;95.70;;;;;;5054469;28;20036;-82
2021/11/05 07:25:29;;;;;;;16.27;12.25;;;5.70;95.70;;;;;;5055526;28;20032;-82
2021/11/05 07:27:55;;;;;;;20.88;13.10;;;5.70;95.70;;;;;;5055786;28;20033;-82
2021/11/05 07:30:21;;;;;;;19.70;11.07;;;5.70;95.70;;;;;;5055420;28;20060;-82
2021/11/05 07:32:47;;;;;;;18.65;11.98;;;5.80;95.70;;;;;;5054358;28;20063;-82
2021/11/05 07:35:19;;;;;;;19.50;12.85;;;5.80;95.60;;;;;;5037983;28;20054;-82
2021/11/05 07:37:45;;;;;;;23.15;14.48;;;5.90;95.60;;;;;;5055713;28;20025;-82
2021/11/05 07:40:12;;;;;;;22.40;13.45;;;5.90;95.60;;;;;;5055287;28;20496;-82
2021/11/05 07:42:40;;;;;;;20.38;13.75;;;5.90;95.60;;;;;;5052269;28;20044;-82
2021/11/05 07:45:08;;;;;;;23.60;16.00;;;6.00;95.60;;;;;;5050826;28;20462;-82
2021/11/05 07:47:33;;;;;;;23.65;15.05;;;6.00;95.70;;;;;;5054168;28;20076;-82
2021/11/05 07:50:00;;;;;;;21.13;13.45;;;6.10;95.70;;;;;;5036635;28;20028;-82
2021/11/05 07:52:26;;;;;;;16.23;11.95;;;6.10;95.70;;;;;;5054763;28;20025;-82
2021/11/05 07:54:51;;;;;;;20.98;14.90;;;6.20;95.60;;;;;;5037283;28;20033;-82
2021/11/05 07:57:17;;;;;;;18.88;13.98;;;6.30;95.60;;;;;;5053664;28;20033;-82
2021/11/05 07:59:43;;;;;;;22.52;15.60;;;6.40;95.60;;;;;;5055316;28;20528;-82
2021/11/05 08:02:08;;;;;;;19.77;15.70;;;6.40;95.50;;;;;;5037152;28;20029;-82
2021/11/05 08:04:35;;;;;;;20.25;12.85;;;6.40;95.60;;;;;;5053978;28;20477;-82
2021/11/05 08:07:00;;;;;;;17.75;14.18;;;6.50;95.60;;;;;;5053005;28;20033;-82
2021/11/05 08:09:26;;;;;;;20.55;13.10;;;6.50;95.80;;;;;;5037223;28;20478;-82
2021/11/05 08:11:52;;;;;;;19.10;13.05;;;6.60;95.50;;;;;;5054916;28;20458;-82
2021/11/05 08:14:17;;;;;;;18.15;11.77;;;6.70;95.50;;;;;;5054995;28;20389;-82
2021/11/05 08:16:43;;;;;;;17.40;12.43;;;6.70;95.40;;;;;;5054782;28;20146;-82
2021/11/05 08:19:09;;;;;;;23.02;14.20;;;6.80;95.40;;;;;;5054759;28;20036;-82
2021/11/05 08:21:34;;;;;;;22.48;13.40;;;6.90;95.50;;;;;;5037063;28;20065;-82
2021/11/05 08:24:01;;;;;;;16.02;11.07;;;7.00;95.50;;;;;;5054767;28;20394;-82
2021/11/05 08:26:27;;;;;;;15.73;12.80;;;7.10;95.30;;;;;;5054509;28;20055;-82
2021/11/05 08:28:54;;;;;;;27.45;14.93;;;7.20;95.20;;;;;;5050634;28;20049;-82
2021/11/05 08:31:20;;;;;;;16.48;11.43;;;7.30;95.20;;;;;;5052184;28;20021;-82
2021/11/05 08:33:46;;;;;;;20.35;15.48;;;7.30;95.30;;;;;;5051796;28;20389;-82
2021/11/05 08:36:15;;;;;;;18.52;11.25;;;7.30;95.30;;;;;;5050075;28;20032;-82
2021/11/05 08:38:43;;;;;;;13.43;10.27;;;7.40;95.30;;;;;;5051307;28;20086;-82
2021/11/05 08:41:10;;;;;;;14.25;10.60;;;7.50;95.30;;;;;;5052568;28;20033;-82
2021/11/05 08:43:36;;;;;;;15.88;11.57;;;7.50;95.30;;;;;;5053275;28;20052;-82
2021/11/05 08:46:04;;;;;;;19.27;11.98;;;7.60;95.20;;;;;;5052180;28;20457;-82
2021/11/05 08:48:31;;;;;;;20.30;11.57;;;7.70;95.20;;;;;;5053582;28;20112;-82
2021/11/05 08:50:58;;;;;;;17.92;10.90;;;7.70;95.10;;;;;;5052212;28;20056;-82
2021/11/05 08:53:23;;;;;;;18.77;11.57;;;7.80;95.10;;;;;;5053124;28;20104;-82
2021/11/05 08:55:49;;;;;;;17.27;12.68;;;7.90;95.00;;;;;;5052116;28;20120;-81
2021/11/05 08:58:16;;;;;;;16.42;10.73;;;8.00;95.30;;;;;;5052650;28;20021;-81
2021/11/05 09:00:42;;;;;;;11.10;9.88;;;8.00;95.10;;;;;;5052650;28;20029;-81
2021/11/05 09:03:08;;;;;;;20.35;10.75;;;8.10;95.20;;;;;;5053753;28;20115;-81
2021/11/05 09:05:35;;;;;;;17.25;11.70;;;8.20;95.10;;;;;;5053749;28;20032;-81
2021/11/05 09:08:02;;;;;;;18.20;12.13;;;8.30;95.00;;;;;;5053584;28;20090;-81
2021/11/05 09:10:28;;;;;;;20.23;12.32;;;8.40;95.00;;;;;;5053205;28;20683;-80
2021/11/05 09:12:54;;;;;;;19.08;11.95;;;8.50;95.10;;;;;;5035802;28;20025;-81
2021/11/05 09:15:22;;;;;;;20.88;12.40;;;8.50;95.10;;;;;;5053941;28;20029;-81
2021/11/05 09:17:51;;;;;;;16.08;11.45;;;8.60;95.10;;;;;;5052365;28;20047;-80
2021/11/05 09:20:18;;;;;;;19.55;12.13;;;8.70;95.20;;;;;;5053797;28;20025;-80
2021/11/05 09:22:45;;;;;;;22.50;11.52;;;8.60;95.20;;;;;;5051968;28;20033;-81
2021/11/05 09:25:11;;;;;;;14.48;10.25;;;8.70;95.30;;;;;;5052213;28;20102;-81
2021/11/05 09:27:37;;;;;;;19.35;10.63;;;8.70;95.40;;;;;;5052716;28;20052;-82
2021/11/05 09:30:05;;;;;;;16.60;11.10;;;8.80;95.50;;;;;;5031669;28;20446;-81
2021/11/05 09:32:31;;;;;;;13.67;9.40;;;8.70;95.40;;;;;;5050915;28;20032;-81
2021/11/05 09:34:57;;;;;;;16.80;10.55;;;8.80;95.40;;;;;;5051927;28;20029;-81
2021/11/05 09:37:23;;;;;;;17.83;9.00;;;8.90;95.40;;;;;;5053640;28;20021;-82
2021/11/05 09:39:49;;;;;;;13.73;9.23;;;8.90;95.30;;;;;;5051889;28;20036;-82
2021/11/05 09:42:15;;;;;;;15.63;8.63;;;9.00;95.60;;;;;;5035476;28;20398;-83
2021/11/05 09:44:41;;;;;;;11.95;7.80;;;9.10;95.30;;;;;;5052247;28;20036;-81
2021/11/05 09:47:07;;;;;;;15.30;7.95;;;9.20;95.30;;;;;;5053458;28;20025;-83
2021/11/05 09:49:33;;;;;;;12.75;7.78;;;9.40;95.20;;;;;;5043757;28;20030;-83
2021/11/05 09:52:02;;;;;;;14.07;8.75;;;9.50;94.90;;;;;;5044271;28;20039;-83
2021/11/05 09:54:30;;;;;;;11.57;8.60;;;9.50;94.90;;;;;;5051899;28;20850;-82
2021/11/05 09:56:57;;;;;;;12.57;7.93;;;9.60;94.90;;;;;;5049484;28;20041;-81
2021/11/05 09:59:24;;;;;;;13.10;7.32;;;9.70;94.90;;;;;;5019299;28;20025;-81
2021/11/05 10:01:50;;;;;;;15.35;8.68;;;9.80;94.80;;;;;;5053587;28;20029;-82
2021/11/05 10:04:16;;;;;;;15.35;7.35;;;10.00;94.80;;;;;;5052537;28;20067;-82
2021/11/05 10:07:05;;;;;;;10.43;6.05;;;10.10;94.60;;;;;;5051964;28;20059;-82
2021/11/05 10:09:38;;;;;;;;;;;10.20;94.50;;;;;;5051989;28;20389;-82
2021/11/05 10:12:15;;;;;;;11.30;6.15;;;10.30;94.40;;;;;;5051759;28;19905;-82
2021/11/05 10:14:43;;;;;;;10.68;7.05;;;10.40;94.40;;;;;;5052528;28;20075;-82
2021/11/05 10:17:11;;;;;;;11.23;6.25;;;10.50;94.30;;;;;;5035188;28;20083;-82
2021/11/05 10:19:59;;;;;;;13.68;6.50;;;10.60;94.20;;;;;;5045651;28;20033;-82
2021/11/05 10:22:46;;;;;;;8.88;5.80;;;10.70;94.20;;;;;;5051619;28;20025;-82
2021/11/05 10:25:36;;;;;;;10.55;5.93;;;10.80;94.00;;;;;;5052390;28;20408;-82
2021/11/05 10:28:21;;;;;;;13.50;5.50;;;10.80;94.00;;;;;;5052732;28;20502;-81
2021/11/05 10:30:47;;;;;;;12.07;5.63;;;10.80;94.20;;;;;;5050811;28;20041;-81
2021/11/05 10:33:15;;;;;;;13.98;5.55;;;10.80;94.10;;;;;;5052639;28;20543;-84
2021/11/05 10:35:44;;;;;;;15.63;5.68;;;10.80;94.10;;;;;;5036340;28;20111;-84
2021/11/05 10:38:12;;;;;;;12.93;5.57;;;10.90;94.20;;;;;;5035146;28;20108;-85
2021/11/05 10:40:48;;;;;;;9.43;5.00;;;11.00;94.10;;;;;;5035509;28;20055;-84
2021/11/05 10:43:18;;;;;;;9.55;5.25;;;11.00;94.00;;;;;;5034955;28;20275;-85
2021/11/05 10:45:44;;;;;;;9.48;5.13;;;11.00;93.90;;;;;;5051557;28;20494;-85
2021/11/05 10:48:12;;;;;;;10.80;5.35;;;11.10;94.00;;;;;;5036440;28;20116;-84
2021/11/05 10:51:01;;;;;;;9.73;5.45;;;11.10;93.90;;;;;;5056539;28;20032;-84
2021/11/05 10:53:47;;;;;;;8.63;5.10;;;11.20;93.90;;;;;;5054719;28;20090;-85
2021/11/05 10:56:16;;;;;;;9.98;4.70;;;11.30;93.90;;;;;;5051428;28;20036;-84
2021/11/05 10:58:49;;;;;;;14.55;5.88;;;11.30;93.80;;;;;;5034900;28;20022;-84
2021/11/05 11:01:19;;;;;;;12.75;5.22;;;11.40;93.70;;;;;;5038494;28;20032;-85
2021/11/05 11:03:55;;;;;;;10.85;4.90;;;11.40;93.60;;;;;;5053359;28;20028;-83
2021/11/05 11:06:24;;;;;;;12.82;5.78;;;11.60;93.70;;;;;;5054846;28;20025;-84
2021/11/05 11:08:51;;;;;;;14.73;5.68;;;11.60;93.70;;;;;;5056160;28;20025;-85
2021/11/05 11:11:19;;;;;;;16.80;5.97;;;11.70;93.60;;;;;;5071175;28;20035;-85
2021/11/05 11:13:53;;;;;;;12.90;5.55;;;11.80;93.40;;;;;;5055368;28;20033;-84
2021/11/05 11:16:22;;;;;;;15.43;5.32;;;12.00;93.40;;;;;;5036979;28;20037;-84
2021/11/05 11:19:09;;;;;;;13.52;4.53;;;12.10;93.60;;;;;;5040914;28;20653;-83
2021/11/05 11:21:52;;;;;;;10.32;4.55;;;12.20;93.00;;;;;;5044287;28;20490;-86
2021/11/05 11:24:21;;;;;;;14.15;4.35;;;12.20;92.90;;;;;;5054108;28;20532;-85
2021/11/05 11:26:49;;;;;;;10.13;4.22;;;12.20;93.00;;;;;;5058683;28;20045;-86
2021/11/05 11:29:16;;;;;;;9.10;4.25;;;12.30;93.00;;;;;;5043128;28;20625;-85
2021/11/05 11:31:44;;;;;;;10.50;3.95;;;12.30;93.00;;;;;;5035328;28;20477;-85
2021/11/05 11:34:11;;;;;;;14.85;4.30;;;12.40;93.00;;;;;;5053031;28;20025;-85
2021/11/05 11:36:41;;;;;;;14.00;3.80;;;12.40;92.90;;;;;;5051845;28;20116;-85
2021/11/05 11:39:10;;;;;;;10.18;3.70;;;12.50;92.70;;;;;;5051228;28;20040;-85
2021/11/05 11:41:36;;;;;;;;;;;12.60;92.90;;;;;;5051782;28;20031;-85
2021/11/05 11:44:03;;;;;;;10.27;4.45;;;12.50;92.60;;;;;;5051351;28;19909;-85
2021/11/05 11:47:02;;;;;;;14.10;4.05;;;12.50;92.70;;;;;;5052810;28;20033;-84
2021/11/05 11:49:33;;;;;;;12.65;3.88;;;12.50;92.70;;;;;;5053174;28;20509;-85
2021/11/05 11:51:58;;;;;;;14.00;3.83;;;12.50;92.80;;;;;;5033745;28;20021;-84
2021/11/05 11:54:24;;;;;;;10.40;4.35;;;12.50;92.80;;;;;;5028890;28;20098;-84
2021/11/05 11:56:52;;;;;;;8.35;3.90;;;12.50;92.80;;;;;;5058187;28;20064;-85
2021/11/05 11:59:26;;;;;;;10.48;3.83;;;12.50;92.80;;;;;;5043371;28;20025;-85
2021/11/05 12:01:52;;;;;;;18.10;4.05;;;12.50;92.80;;;;;;5050906;28;20028;-83
2021/11/05 12:04:18;;;;;;;9.57;4.07;;;12.50;92.80;;;;;;5031755;28;20036;-83
2021/11/05 12:06:47;;;;;;;9.68;3.75;;;12.50;92.80;;;;;;5052954;28;20029;-84
2021/11/05 12:09:26;;;;;;;10.00;4.00;;;12.60;92.80;;;;;;5052899;28;20568;-84
2021/11/05 12:12:31;;;;;;;11.52;3.33;;;12.70;92.70;;;;;;5049253;28;20032;-83
2021/11/05 12:15:00;;;;;;;8.95;3.58;;;12.80;92.60;;;;;;5060349;28;20027;-80
2021/11/05 12:17:27;;;;;;;12.48;3.88;;;12.70;92.50;;;;;;5050755;28;20057;-80
2021/11/05 12:20:00;;;;;;;8.93;3.10;;;12.80;92.50;;;;;;5053501;28;20379;-80
2021/11/05 12:22:28;;;;;;;12.23;3.03;;;12.70;92.50;;;;;;5051654;28;20490;-80
2021/11/05 12:25:17;;;;;;;9.38;3.38;;;12.70;92.50;;;;;;5051639;28;20035;-79
2021/11/05 12:28:41;;;;;;;12.52;3.38;;;12.60;92.40;;;;;;5051973;28;20083;-83
2021/11/05 12:31:29;;;;;;;6.30;2.60;;;12.60;92.50;;;;;;5047469;28;20422;-83
2021/11/05 12:33:56;;;;;;;7.68;2.90;;;12.60;92.70;;;;;;5032011;28;20040;-82
2021/11/05 12:36:51;;;;;;;7.22;2.83;;;12.50;92.60;;;;;;5038338;28;20045;-83
2021/11/05 12:39:38;;;;;;;16.00;3.47;;;12.60;92.60;;;;;;5040753;28;20033;-80
2021/11/05 12:42:10;;;;;;;8.73;3.17;;;12.70;92.50;;;;;;5045050;28;20119;-80